Terminal Aerodrome Forecast
Issued by NWS

Home | Current Version | Previous Version | Text Only | Print | Product List | Glossary On
Versions: 1 2 3 4 5 6 7 8 9 10 11 12 13 14 15 16 17
000
FTUS43 KILX 251746
TAFDEC
TAF
KDEC 251746Z 2518/2618 27009KT P6SM SCT025 BKN040
     FM252200 30006KT P6SM -SHRA VCTS SCT025CB BKN060
      TEMPO 2523/2601 2SM -TSRA OVC025CB
     FM260100 34004KT P6SM BKN100
     FM261100 06004KT P6SM BKN100=

USA.gov is the U.S. government's official web portal to all federal, state and local government web resources and services.